You are not logged in, Click here to log in
Kuwait International Airport / OKBK Kuwait City
ICAO: OKBK Country: Kuwait City
Latitude: 29.2266 Longitude: 47.9689
Total Arrivals: 3 Total Departures: 4
Latest Arrival: FZ67 (OMDB-OKBK)Jason. Li Latest Departure: KU501 (OKBK-OLBA)Jason. Li
Scenery: https://en.wikipedia.org/wiki/Prince_Hassan_Air_Base
METAR : OKBK 090800Z 35012KT CAVOK 44/06 Q0996 NOSIG

Kuwait International Airport